Marathon, Florida
Current Conditions -  °F | °C
As of 5:53 PM on Saturday 20 Dec 2014 (Local Time) from KMTH Reporting Station
Broken Clouds Broken Clouds  
Wind Chill: 75°   Ceiling: 3400
Heat Index: 75°   Visibility: 10mi
Dew Point: 68°   Wind: 3mph
Humidity: 79%   Direction: 110°ESE
Pressure: 30.04"   Gusts: NA
Location:  24.73°N, 81.04°W
Report Text: KMTH 202253Z AUTO 11003KT 10SM BKN034 24/20 A3004 RMK AO2 SLP171 T02390200
Loading
Personal Weather Stations






























Interactive Weather Map New forecast layout! Learn more

10-Day Weather Forecast

Advertisements
Track Severe Weather on mobile